sensor_id;sensor_type;location;lat;lon;timestamp;pressure;altitude;pressure_sealevel;temperature;humidity
50105;BME280;47690;39.202;-77.198;2023-07-31T03:04:40;100041.50;;;24.74;57.72
50105;BME280;47690;39.202;-77.198;2023-07-31T03:08:13;100045.94;;;24.74;58.60
50105;BME280;47690;39.202;-77.198;2023-07-31T03:11:16;100047.72;;;24.73;57.74
50105;BME280;47690;39.202;-77.198;2023-07-31T03:14:21;100047.13;;;24.69;58.35
50105;BME280;47690;39.202;-77.198;2023-07-31T03:17:23;100052.84;;;24.63;58.60
50105;BME280;47690;39.202;-77.198;2023-07-31T03:20:28;100049.41;;;24.63;58.59
50105;BME280;47690;39.202;-77.198;2023-07-31T03:23:30;100044.13;;;24.63;58.72
50105;BME280;47690;39.202;-77.198;2023-07-31T03:26:35;100041.50;;;24.63;58.94
50105;BME280;47690;39.202;-77.198;2023-07-31T03:30:08;100042.56;;;24.60;59.60
50105;BME280;47690;39.202;-77.198;2023-07-31T03:33:13;100042.78;;;24.57;59.30
50105;BME280;47690;39.202;-77.198;2023-07-31T03:36:19;100039.22;;;24.58;59.66
50105;BME280;47690;39.202;-77.198;2023-07-31T03:39:23;100036.00;;;24.66;59.47
50105;BME280;47690;39.202;-77.198;2023-07-31T03:42:28;100038.63;;;24.54;59.81
50105;BME280;47690;39.202;-77.198;2023-07-31T03:45:31;100037.78;;;24.54;60.24
50105;BME280;47690;39.202;-77.198;2023-07-31T03:48:34;100036.13;;;24.53;60.41
50105;BME280;47690;39.202;-77.198;2023-07-31T03:51:40;100039.34;;;24.57;61.32
50105;BME280;47690;39.202;-77.198;2023-07-31T03:54:44;100046.75;;;24.51;60.65
50105;BME280;47690;39.202;-77.198;2023-07-31T03:57:49;100049.38;;;24.51;60.59
50105;BME280;47690;39.202;-77.198;2023-07-31T04:00:55;100040.53;;;24.52;60.61
50105;BME280;47690;39.202;-77.198;2023-07-31T04:03:59;100057.19;;;24.53;60.33
50105;BME280;47690;39.202;-77.198;2023-07-31T04:07:03;100071.53;;;24.60;60.39
50105;BME280;47690;39.202;-77.198;2023-07-31T04:10:34;100084.09;;;24.57;61.03
50105;BME280;47690;39.202;-77.198;2023-07-31T04:13:37;100093.56;;;24.59;60.63
50105;BME280;47690;39.202;-77.198;2023-07-31T04:16:41;100096.19;;;24.59;60.74
50105;BME280;47690;39.202;-77.198;2023-07-31T04:19:44;100106.84;;;24.58;60.52
50105;BME280;47690;39.202;-77.198;2023-07-31T04:22:48;100124.31;;;24.59;60.45
50105;BME280;47690;39.202;-77.198;2023-07-31T04:25:53;100124.06;;;24.62;60.12
50105;BME280;47690;39.202;-77.198;2023-07-31T04:28:56;100122.63;;;24.58;60.25
50105;BME280;47690;39.202;-77.198;2023-07-31T04:31:59;100119.91;;;24.59;60.47
50105;BME280;47690;39.202;-77.198;2023-07-31T04:35:04;100131.38;;;24.58;60.43
50105;BME280;47690;39.202;-77.198;2023-07-31T04:38:08;100130.19;;;24.62;60.65
50105;BME280;47690;39.202;-77.198;2023-07-31T04:41:12;100129.34;;;24.62;60.69
50105;BME280;47690;39.202;-77.198;2023-07-31T04:44:15;100129.47;;;24.60;60.66
50105;BME280;47690;39.202;-77.198;2023-07-31T04:47:19;100129.34;;;24.62;60.93
50105;BME280;47690;39.202;-77.198;2023-07-31T04:50:22;100125.88;;;24.61;60.81
50105;BME280;47690;39.202;-77.198;2023-07-31T04:53:27;100127.44;;;24.64;61.16
50105;BME280;47690;39.202;-77.198;2023-07-31T04:56:29;100125.88;;;24.61;61.21
50105;BME280;47690;39.202;-77.198;2023-07-31T04:59:31;100122.28;;;24.62;61.22
50105;BME280;47690;39.202;-77.198;2023-07-31T05:02:40;100124.81;;;24.64;61.10
50105;BME280;47690;39.202;-77.198;2023-07-31T05:06:09;100126.38;;;24.66;61.44
50105;BME280;47690;39.202;-77.198;2023-07-31T05:09:11;100122.53;;;24.59;61.48
50105;BME280;47690;39.202;-77.198;2023-07-31T05:12:14;100126.13;;;24.58;61.19
50105;BME280;47690;39.202;-77.198;2023-07-31T05:15:17;100126.22;;;24.57;61.55
50105;BME280;47690;39.202;-77.198;2023-07-31T05:18:21;100120.97;;;24.57;61.93
50105;BME280;47690;39.202;-77.198;2023-07-31T05:21:28;100117.63;;;24.54;61.43
50105;BME280;47690;39.202;-77.198;2023-07-31T05:24:35;100119.50;;;24.52;61.75
50105;BME280;47690;39.202;-77.198;2023-07-31T05:27:37;100124.78;;;24.52;61.68
50105;BME280;47690;39.202;-77.198;2023-07-31T05:30:41;100129.69;;;24.46;61.99
50105;BME280;47690;39.202;-77.198;2023-07-31T05:33:48;100121.41;;;24.39;62.53
50105;BME280;47690;39.202;-77.198;2023-07-31T05:37:00;100126.78;;;24.37;62.00
50105;BME280;47690;39.202;-77.198;2023-07-31T05:40:03;100110.16;;;24.37;62.29
50105;BME280;47690;39.202;-77.198;2023-07-31T05:43:06;100121.53;;;24.37;62.27
50105;BME280;47690;39.202;-77.198;2023-07-31T05:46:11;100127.00;;;24.34;62.28
50105;BME280;47690;39.202;-77.198;2023-07-31T05:49:16;100119.00;;;24.36;62.00
50105;BME280;47690;39.202;-77.198;2023-07-31T05:52:19;100118.16;;;24.35;62.09
50105;BME280;47690;39.202;-77.198;2023-07-31T05:55:24;100111.97;;;24.36;62.05
50105;BME280;47690;39.202;-77.198;2023-07-31T05:58:28;100106.69;;;24.36;62.34
50105;BME280;47690;39.202;-77.198;2023-07-31T06:01:31;100109.78;;;24.41;62.16
50105;BME280;47690;39.202;-77.198;2023-07-31T06:04:38;100108.38;;;24.37;61.83
50105;BME280;47690;39.202;-77.198;2023-07-31T06:07:41;100101.69;;;24.45;61.49
50105;BME280;47690;39.202;-77.198;2023-07-31T06:10:44;100108.22;;;24.39;61.60
50105;BME280;47690;39.202;-77.198;2023-07-31T06:13:49;100097.94;;;24.36;61.49
50105;BME280;47690;39.202;-77.198;2023-07-31T06:16:56;100097.94;;;24.36;61.42
50105;BME280;47690;39.202;-77.198;2023-07-31T06:19:59;100080.72;;;24.43;61.53
50105;BME280;47690;39.202;-77.198;2023-07-31T06:23:03;100068.63;;;24.40;61.45
50105;BME280;47690;39.202;-77.198;2023-07-31T06:26:11;100058.72;;;24.44;61.17
50105;BME280;47690;39.202;-77.198;2023-07-31T06:29:15;100040.19;;;24.46;61.32
50105;BME280;47690;39.202;-77.198;2023-07-31T06:32:24;100025.56;;;24.41;61.23
50105;BME280;47690;39.202;-77.198;2023-07-31T06:35:27;100016.97;;;24.39;61.23
50105;BME280;47690;39.202;-77.198;2023-07-31T06:38:57;100006.06;;;24.33;62.25
50105;BME280;47690;39.202;-77.198;2023-07-31T06:42:01;100011.44;;;24.31;61.99
50105;BME280;47690;39.202;-77.198;2023-07-31T06:45:03;99997.91;;;24.24;62.31
50105;BME280;47690;39.202;-77.198;2023-07-31T06:48:09;99995.63;;;24.20;62.67
50105;BME280;47690;39.202;-77.198;2023-07-31T06:51:11;99991.81;;;24.24;62.66
50105;BME280;47690;39.202;-77.198;2023-07-31T06:54:16;99993.59;;;24.12;63.20
50105;BME280;47690;39.202;-77.198;2023-07-31T06:57:20;100002.72;;;24.19;63.12
50105;BME280;47690;39.202;-77.198;2023-07-31T07:00:23;100000.44;;;24.14;63.78
50105;BME280;47690;39.202;-77.198;2023-07-31T07:03:27;99993.81;;;24.09;63.68
50105;BME280;47690;39.202;-77.198;2023-07-31T07:06:32;99980.28;;;24.02;64.13
50105;BME280;47690;39.202;-77.198;2023-07-31T07:09:36;99980.19;;;24.04;65.37
50105;BME280;47690;39.202;-77.198;2023-07-31T07:12:43;99977.25;;;23.95;64.56
50105;BME280;47690;39.202;-77.198;2023-07-31T07:15:49;99972.84;;;23.96;64.69
50105;BME280;47690;39.202;-77.198;2023-07-31T07:18:51;99975.47;;;23.96;64.97
50105;BME280;47690;39.202;-77.198;2023-07-31T07:21:57;99971.06;;;23.96;64.54
50105;BME280;47690;39.202;-77.198;2023-07-31T07:25:00;99958.28;;;24.03;64.69
50105;BME280;47690;39.202;-77.198;2023-07-31T07:28:05;99949.78;;;23.99;64.82
50105;BME280;47690;39.202;-77.198;2023-07-31T07:31:10;99958.16;;;24.05;66.09
50105;BME280;47690;39.202;-77.198;2023-07-31T07:34:12;99970.47;;;23.93;65.33
50105;BME280;47690;39.202;-77.198;2023-07-31T07:37:16;99977.63;;;23.91;65.20
50105;BME280;47690;39.202;-77.198;2023-07-31T07:40:21;99983.72;;;23.91;65.37
50105;BME280;47690;39.202;-77.198;2023-07-31T07:43:24;99969.13;;;23.87;65.82
50105;BME280;47690;39.202;-77.198;2023-07-31T07:46:27;99970.81;;;23.88;65.59
50105;BME280;47690;39.202;-77.198;2023-07-31T07:49:33;99975.47;;;23.84;66.03
50105;BME280;47690;39.202;-77.198;2023-07-31T07:52:41;99982.41;;;23.85;65.77
50105;BME280;47690;39.202;-77.198;2023-07-31T07:55:44;99983.97;;;23.88;65.85
50105;BME280;47690;39.202;-77.198;2023-07-31T07:58:49;99982.06;;;23.90;66.15
50105;BME280;47690;39.202;-77.198;2023-07-31T08:01:52;99983.81;;;23.78;66.30
50105;BME280;47690;39.202;-77.198;2023-07-31T08:04:56;99989.91;;;23.79;66.21
50105;BME280;47690;39.202;-77.198;2023-07-31T08:08:01;99987.78;;;23.84;66.04
50105;BME280;47690;39.202;-77.198;2023-07-31T08:11:30;99988.84;;;23.81;66.64
50105;BME280;47690;39.202;-77.198;2023-07-31T08:14:34;99990.50;;;23.71;66.60
50105;BME280;47690;39.202;-77.198;2023-07-31T08:17:36;99996.00;;;23.79;66.26
50105;BME280;47690;39.202;-77.198;2023-07-31T08:20:41;100003.03;;;23.67;66.50
50105;BME280;47690;39.202;-77.198;2023-07-31T08:23:45;100008.41;;;23.66;67.18
50105;BME280;47690;39.202;-77.198;2023-07-31T08:26:48;100003.66;;;23.82;66.43
50105;BME280;47690;39.202;-77.198;2023-07-31T08:29:52;100003.91;;;23.79;66.50
50105;BME280;47690;39.202;-77.198;2023-07-31T08:32:57;100017.25;;;23.76;66.23
50105;BME280;47690;39.202;-77.198;2023-07-31T08:36:02;100011.91;;;23.78;67.14
50105;BME280;47690;39.202;-77.198;2023-07-31T08:39:08;100011.53;;;23.71;66.69
50105;BME280;47690;39.202;-77.198;2023-07-31T08:42:12;100015.13;;;23.70;66.49
50105;BME280;47690;39.202;-77.198;2023-07-31T08:45:20;100009.13;;;23.68;66.51
50105;BME280;47690;39.202;-77.198;2023-07-31T08:48:51;100024.06;;;23.67;67.10
50105;BME280;47690;39.202;-77.198;2023-07-31T08:51:55;100016.38;;;23.64;66.94
50105;BME280;47690;39.202;-77.198;2023-07-31T08:55:00;100007.00;;;23.73;66.50
50105;BME280;47690;39.202;-77.198;2023-07-31T08:58:04;100001.56;;;23.63;66.91
50105;BME280;47690;39.202;-77.198;2023-07-31T09:01:08;100006.00;;;23.63;66.98
50105;BME280;47690;39.202;-77.198;2023-07-31T09:04:13;100012.19;;;23.62;66.99
50105;BME280;47690;39.202;-77.198;2023-07-31T09:07:16;100022.94;;;23.58;66.84
50105;BME280;47690;39.202;-77.198;2023-07-31T09:10:20;100028.91;;;23.49;67.16
50105;BME280;47690;39.202;-77.198;2023-07-31T09:13:24;100031.00;;;23.44;67.47
50105;BME280;47690;39.202;-77.198;2023-07-31T09:16:29;100031.97;;;23.43;67.97
50105;BME280;47690;39.202;-77.198;2023-07-31T09:19:35;100021.66;;;23.40;67.78
50105;BME280;47690;39.202;-77.198;2023-07-31T09:22:44;100026.19;;;23.38;67.97
50105;BME280;47690;39.202;-77.198;2023-07-31T09:25:48;100024.53;;;23.37;68.18
50105;BME280;47690;39.202;-77.198;2023-07-31T09:28:53;100023.38;;;23.41;68.91
50105;BME280;47690;39.202;-77.198;2023-07-31T09:31:59;100024.88;;;23.32;68.37
50105;BME280;47690;39.202;-77.198;2023-07-31T09:35:20;100022.00;;;23.35;68.51
50105;BME280;47690;39.202;-77.198;2023-07-31T09:38:24;100022.13;;;23.33;68.66
50105;BME280;47690;39.202;-77.198;2023-07-31T09:41:54;100027.25;;;23.35;68.54
50105;BME280;47690;39.202;-77.198;2023-07-31T09:45:09;100034.41;;;23.33;68.58
50105;BME280;47690;39.202;-77.198;2023-07-31T09:48:20;100045.88;;;23.32;68.53
50105;BME280;47690;39.202;-77.198;2023-07-31T09:51:28;100056.41;;;23.32;68.68
50105;BME280;47690;39.202;-77.198;2023-07-31T09:54:35;100059.53;;;23.37;68.59
50105;BME280;47690;39.202;-77.198;2023-07-31T09:57:46;100054.47;;;23.34;68.70
50105;BME280;47690;39.202;-77.198;2023-07-31T10:00:51;100063.72;;;23.40;68.30
50105;BME280;47690;39.202;-77.198;2023-07-31T10:04:27;100066.22;;;23.41;68.71
50105;BME280;47690;39.202;-77.198;2023-07-31T10:07:38;100063.22;;;23.35;68.77
50105;BME280;47690;39.202;-77.198;2023-07-31T10:10:46;100066.91;;;23.32;69.18
50105;BME280;47690;39.202;-77.198;2023-07-31T10:13:51;100063.84;;;23.25;69.56
50105;BME280;47690;39.202;-77.198;2023-07-31T10:16:58;100064.91;;;23.23;69.44
50105;BME280;47690;39.202;-77.198;2023-07-31T10:20:05;100075.28;;;23.24;69.52
50105;BME280;47690;39.202;-77.198;2023-07-31T10:23:12;100065.53;;;23.26;69.35
50105;BME280;47690;39.202;-77.198;2023-07-31T10:26:19;100065.41;;;23.28;69.65
50105;BME280;47690;39.202;-77.198;2023-07-31T10:29:52;100069.63;;;23.30;69.85
50105;BME280;47690;39.202;-77.198;2023-07-31T10:32:56;100064.44;;;23.29;69.49
50105;BME280;47690;39.202;-77.198;2023-07-31T10:36:13;100067.00;;;23.30;69.74
50105;BME280;47690;39.202;-77.198;2023-07-31T10:39:37;100065.22;;;23.31;70.25
50105;BME280;47690;39.202;-77.198;2023-07-31T10:45:52;100072.97;;;23.32;69.54
50105;BME280;47690;39.202;-77.198;2023-07-31T10:49:22;100095.09;;;23.30;69.77
50105;BME280;47690;39.202;-77.198;2023-07-31T10:52:35;100095.16;;;23.28;70.10
50105;BME280;47690;39.202;-77.198;2023-07-31T10:55:42;100102.97;;;23.30;69.79
50105;BME280;47690;39.202;-77.198;2023-07-31T10:59:00;100115.16;;;23.31;70.40
50105;BME280;47690;39.202;-77.198;2023-07-31T11:02:26;100123.03;;;23.31;70.18
50105;BME280;47690;39.202;-77.198;2023-07-31T11:05:59;100135.22;;;23.32;70.23
50105;BME280;47690;39.202;-77.198;2023-07-31T11:09:05;100130.06;;;23.30;69.83
50105;BME280;47690;39.202;-77.198;2023-07-31T11:12:10;100135.34;;;23.30;70.11
50105;BME280;47690;39.202;-77.198;2023-07-31T11:15:13;100134.56;;;23.28;70.11
50105;BME280;47690;39.202;-77.198;2023-07-31T11:18:17;100143.28;;;23.29;70.22
50105;BME280;47690;39.202;-77.198;2023-07-31T11:21:24;100147.66;;;23.30;70.71
50105;BME280;47690;39.202;-77.198;2023-07-31T11:24:27;100143.13;;;23.32;70.72
50105;BME280;47690;39.202;-77.198;2023-07-31T11:27:39;100154.34;;;23.34;71.14
50105;BME280;47690;39.202;-77.198;2023-07-31T11:30:46;100168.34;;;23.35;70.54
50105;BME280;47690;39.202;-77.198;2023-07-31T11:34:04;100169.91;;;23.37;70.65
50105;BME280;47690;39.202;-77.198;2023-07-31T11:37:05;100168.09;;;23.38;70.85
50105;BME280;47690;39.202;-77.198;2023-07-31T11:40:10;100163.56;;;23.40;70.79
50105;BME280;47690;39.202;-77.198;2023-07-31T11:43:11;100174.84;;;23.42;71.17
50105;BME280;47690;39.202;-77.198;2023-07-31T11:46:11;100172.22;;;23.42;71.11
50105;BME280;47690;39.202;-77.198;2023-07-31T11:49:16;100171.25;;;23.43;70.91
50105;BME280;47690;39.202;-77.198;2023-07-31T11:52:44;100164.00;;;23.46;71.24
50105;BME280;47690;39.202;-77.198;2023-07-31T11:55:52;100174.00;;;23.41;71.26
50105;BME280;47690;39.202;-77.198;2023-07-31T11:59:01;100180.19;;;23.40;71.48
50105;BME280;47690;39.202;-77.198;2023-07-31T12:02:04;100183.69;;;23.41;71.16
50105;BME280;47690;39.202;-77.198;2023-07-31T12:05:13;100181.84;;;23.54;70.90
50105;BME280;47690;39.202;-77.198;2023-07-31T12:08:20;100186.59;;;23.49;71.07
50105;BME280;47690;39.202;-77.198;2023-07-31T12:11:24;100180.41;;;23.50;71.14
50105;BME280;47690;39.202;-77.198;2023-07-31T12:14:54;100182.78;;;23.53;71.54
50105;BME280;47690;39.202;-77.198;2023-07-31T12:17:57;100190.56;;;23.55;71.23
50105;BME280;47690;39.202;-77.198;2023-07-31T12:21:06;100194.56;;;23.60;71.26
50105;BME280;47690;39.202;-77.198;2023-07-31T12:24:11;100191.44;;;23.55;71.55
50105;BME280;47690;39.202;-77.198;2023-07-31T12:27:15;100197.09;;;23.62;71.98
50105;BME280;47690;39.202;-77.198;2023-07-31T12:30:28;100189.16;;;23.75;71.22
50105;BME280;47690;39.202;-77.198;2023-07-31T12:33:40;100187.75;;;23.82;71.24
50105;BME280;47690;39.202;-77.198;2023-07-31T12:36:18;100190.06;;;23.87;71.15
50105;BME280;47690;39.202;-77.198;2023-07-31T12:38:47;100189.00;;;23.90;70.71
50105;BME280;47690;39.202;-77.198;2023-07-31T12:41:17;100193.91;;;23.94;70.62
50105;BME280;47690;39.202;-77.198;2023-07-31T12:43:46;100190.13;;;23.98;70.63
50105;BME280;47690;39.202;-77.198;2023-07-31T12:46:15;100188.16;;;23.89;71.07
50105;BME280;47690;39.202;-77.198;2023-07-31T12:48:45;100187.31;;;23.88;71.65
50105;BME280;47690;39.202;-77.198;2023-07-31T12:51:15;100196.69;;;23.93;72.17
50105;BME280;47690;39.202;-77.198;2023-07-31T12:53:45;100190.22;;;23.97;72.14
50105;BME280;47690;39.202;-77.198;2023-07-31T12:56:17;100191.81;;;23.99;71.79
50105;BME280;47690;39.202;-77.198;2023-07-31T12:58:47;100182.00;;;24.01;70.96
50105;BME280;47690;39.202;-77.198;2023-07-31T13:01:16;100184.88;;;24.23;70.52
50105;BME280;47690;39.202;-77.198;2023-07-31T13:03:45;100189.47;;;24.32;69.91
50105;BME280;47690;39.202;-77.198;2023-07-31T13:06:15;100193.44;;;24.38;69.43
50105;BME280;47690;39.202;-77.198;2023-07-31T13:08:43;100188.78;;;24.41;69.20
50105;BME280;47690;39.202;-77.198;2023-07-31T13:11:12;100184.97;;;24.46;68.96
50105;BME280;47690;39.202;-77.198;2023-07-31T13:13:41;100188.22;;;24.49;68.61
50105;BME280;47690;39.202;-77.198;2023-07-31T13:16:11;100181.88;;;24.52;68.49
50105;BME280;47690;39.202;-77.198;2023-07-31T13:18:40;100180.81;;;24.54;68.06
50105;BME280;47690;39.202;-77.198;2023-07-31T13:21:09;100180.56;;;24.58;68.12
50105;BME280;47690;39.202;-77.198;2023-07-31T13:23:39;100187.16;;;24.63;68.39
50105;BME280;47690;39.202;-77.198;2023-07-31T13:26:09;100192.06;;;24.68;68.53
50105;BME280;47690;39.202;-77.198;2023-07-31T13:28:39;100189.09;;;24.73;68.31
50105;BME280;47690;39.202;-77.198;2023-07-31T13:31:08;100189.69;;;24.76;68.08
50105;BME280;47690;39.202;-77.198;2023-07-31T13:33:39;100188.63;;;24.79;67.97
50105;BME280;47690;39.202;-77.198;2023-07-31T13:36:11;100191.06;;;24.82;67.64
50105;BME280;47690;39.202;-77.198;2023-07-31T13:38:43;100187.38;;;24.85;67.45
50105;BME280;47690;39.202;-77.198;2023-07-31T13:41:12;100192.38;;;24.88;67.42
50105;BME280;47690;39.202;-77.198;2023-07-31T13:43:41;100183.53;;;24.89;67.41
50105;BME280;47690;39.202;-77.198;2023-07-31T13:46:19;100193.59;;;24.95;67.27
50105;BME280;47690;39.202;-77.198;2023-07-31T13:48:48;100196.13;;;24.96;67.45
50105;BME280;47690;39.202;-77.198;2023-07-31T13:51:19;100186.19;;;25.00;67.59
50105;BME280;47690;39.202;-77.198;2023-07-31T13:53:50;100181.38;;;25.05;67.99
50105;BME280;47690;39.202;-77.198;2023-07-31T13:56:20;100189.88;;;25.09;67.82
50105;BME280;47690;39.202;-77.198;2023-07-31T13:58:49;100188.00;;;25.11;67.28
50105;BME280;47690;39.202;-77.198;2023-07-31T14:01:19;100198.28;;;25.14;66.87
50105;BME280;47690;39.202;-77.198;2023-07-31T14:03:52;100204.41;;;25.15;66.99
50105;BME280;47690;39.202;-77.198;2023-07-31T14:06:21;100194.56;;;25.17;66.51
50105;BME280;47690;39.202;-77.198;2023-07-31T14:08:51;100205.81;;;25.19;66.33
50105;BME280;47690;39.202;-77.198;2023-07-31T14:11:20;100208.34;;;25.20;66.30
50105;BME280;47690;39.202;-77.198;2023-07-31T14:13:51;100205.59;;;25.22;66.34
50105;BME280;47690;39.202;-77.198;2023-07-31T14:16:19;100198.28;;;25.26;66.09
50105;BME280;47690;39.202;-77.198;2023-07-31T14:18:48;100203.56;;;25.26;66.34
50105;BME280;47690;39.202;-77.198;2023-07-31T14:21:23;100207.28;;;25.23;66.22
50105;BME280;47690;39.202;-77.198;2023-07-31T14:23:53;100203.78;;;25.22;65.92
50105;BME280;47690;39.202;-77.198;2023-07-31T14:26:24;100212.53;;;25.23;65.75
50105;BME280;47690;39.202;-77.198;2023-07-31T14:28:55;100204.28;;;25.28;65.40
50105;BME280;47690;39.202;-77.198;2023-07-31T14:31:24;100203.19;;;25.30;65.59
50105;BME280;47690;39.202;-77.198;2023-07-31T14:33:53;100206.28;;;25.35;65.65
50105;BME280;47690;39.202;-77.198;2023-07-31T14:36:28;100205.09;;;25.40;65.58
50105;BME280;47690;39.202;-77.198;2023-07-31T14:38:58;100207.63;;;25.41;64.97
50105;BME280;47690;39.202;-77.198;2023-07-31T14:41:27;100197.31;;;25.49;64.32
50105;BME280;47690;39.202;-77.198;2023-07-31T14:43:59;100206.56;;;25.55;64.17
50105;BME280;47690;39.202;-77.198;2023-07-31T14:46:28;100205.59;;;25.56;63.90
50105;BME280;47690;39.202;-77.198;2023-07-31T14:48:57;100217.97;;;25.56;63.43
50105;BME280;47690;39.202;-77.198;2023-07-31T14:51:27;100213.88;;;25.63;63.22
50105;BME280;47690;39.202;-77.198;2023-07-31T14:53:56;100225.72;;;25.57;62.24
50105;BME280;47690;39.202;-77.198;2023-07-31T14:56:28;100213.38;;;25.58;61.65
50105;BME280;47690;39.202;-77.198;2023-07-31T14:58:59;100229.81;;;25.61;61.38
50105;BME280;47690;39.202;-77.198;2023-07-31T15:01:35;100216.50;;;25.63;60.84
50105;BME280;47690;39.202;-77.198;2023-07-31T15:04:09;100218.28;;;25.62;60.84
50105;BME280;47690;39.202;-77.198;2023-07-31T15:06:41;100218.88;;;25.66;60.78
50105;BME280;47690;39.202;-77.198;2023-07-31T15:09:28;100217.09;;;25.67;60.14
50105;BME280;47690;39.202;-77.198;2023-07-31T15:12:09;100225.84;;;25.67;59.69
50105;BME280;47690;39.202;-77.198;2023-07-31T15:14:44;100224.06;;;25.68;59.34
50105;BME280;47690;39.202;-77.198;2023-07-31T15:20:41;100228.69;;;25.75;58.68
50105;BME280;47690;39.202;-77.198;2023-07-31T15:23:24;100232.91;;;25.78;58.58
50105;BME280;47690;39.202;-77.198;2023-07-31T15:25:55;100230.03;;;25.81;58.13
50105;BME280;47690;39.202;-77.198;2023-07-31T15:28:27;100229.66;;;25.86;58.18
50105;BME280;47690;39.202;-77.198;2023-07-31T15:30:58;100239.34;;;25.85;58.02
50105;BME280;47690;39.202;-77.198;2023-07-31T15:33:33;100236.38;;;25.78;57.90
50105;BME280;47690;39.202;-77.198;2023-07-31T15:36:10;100234.44;;;25.81;57.42
50105;BME280;47690;39.202;-77.198;2023-07-31T15:41:31;100219.69;;;25.89;56.84
50105;BME280;47690;39.202;-77.198;2023-07-31T15:44:01;100234.56;;;25.90;57.00
50105;BME280;47690;39.202;-77.198;2023-07-31T15:46:30;100233.59;;;25.91;56.90
50105;BME280;47690;39.202;-77.198;2023-07-31T15:48:59;100232.50;;;25.94;56.74
50105;BME280;47690;39.202;-77.198;2023-07-31T15:51:32;100237.31;;;25.89;56.59
50105;BME280;47690;39.202;-77.198;2023-07-31T15:54:02;100237.41;;;25.99;56.19
50105;BME280;47690;39.202;-77.198;2023-07-31T15:56:31;100234.41;;;26.03;56.08
50105;BME280;47690;39.202;-77.198;2023-07-31T15:58:59;100227.19;;;26.05;55.82
50105;BME280;47690;39.202;-77.198;2023-07-31T16:01:29;100220.81;;;26.08;55.64
50105;BME280;47690;39.202;-77.198;2023-07-31T16:03:57;100226.00;;;26.10;56.03
50105;BME280;47690;39.202;-77.198;2023-07-31T16:06:27;100226.06;;;26.19;55.63
50105;BME280;47690;39.202;-77.198;2023-07-31T16:08:56;100216.97;;;26.24;55.39
50105;BME280;47690;39.202;-77.198;2023-07-31T16:11:27;100212.03;;;26.30;54.82
50105;BME280;47690;39.202;-77.198;2023-07-31T16:13:59;100221.50;;;26.33;55.07
50105;BME280;47690;39.202;-77.198;2023-07-31T16:16:30;100222.22;;;26.35;54.54
50105;BME280;47690;39.202;-77.198;2023-07-31T16:19:00;100221.81;;;26.40;54.23
50105;BME280;47690;39.202;-77.198;2023-07-31T16:21:29;100218.34;;;26.39;53.47
50105;BME280;47690;39.202;-77.198;2023-07-31T16:23:59;100222.66;;;26.40;53.87
50105;BME280;47690;39.202;-77.198;2023-07-31T16:26:31;100218.69;;;26.46;53.60
50105;BME280;47690;39.202;-77.198;2023-07-31T16:29:03;100214.44;;;26.55;53.68
50105;BME280;47690;39.202;-77.198;2023-07-31T16:31:37;100211.84;;;26.65;54.08
50105;BME280;47690;39.202;-77.198;2023-07-31T16:34:22;100216.38;;;26.74;53.73
50105;BME280;47690;39.202;-77.198;2023-07-31T16:36:53;100204.56;;;26.78;53.38
50105;BME280;47690;39.202;-77.198;2023-07-31T16:39:29;100220.00;;;26.83;53.14
50105;BME280;47690;39.202;-77.198;2023-07-31T16:42:08;100217.53;;;26.81;52.88
50105;BME280;47690;39.202;-77.198;2023-07-31T16:44:38;100213.34;;;26.79;52.62
50105;BME280;47690;39.202;-77.198;2023-07-31T16:47:11;100202.88;;;26.77;52.74
50105;BME280;47690;39.202;-77.198;2023-07-31T16:49:40;100196.22;;;26.73;52.49
50105;BME280;47690;39.202;-77.198;2023-07-31T16:52:09;100195.81;;;26.78;52.24
50105;BME280;47690;39.202;-77.198;2023-07-31T16:54:40;100193.16;;;26.78;51.87
50105;BME280;47690;39.202;-77.198;2023-07-31T16:57:09;100193.28;;;26.76;52.50
50105;BME280;47690;39.202;-77.198;2023-07-31T16:59:39;100187.72;;;26.79;51.56
50105;BME280;47690;39.202;-77.198;2023-07-31T17:02:09;100199.72;;;26.83;51.95
50105;BME280;47690;39.202;-77.198;2023-07-31T17:04:37;100197.53;;;26.89;51.33
50105;BME280;47690;39.202;-77.198;2023-07-31T17:07:08;100204.41;;;26.91;52.10
50105;BME280;47690;39.202;-77.198;2023-07-31T17:09:37;100204.13;;;26.94;51.71
50105;BME280;47690;39.202;-77.198;2023-07-31T17:12:07;100202.59;;;26.92;52.05
50105;BME280;47690;39.202;-77.198;2023-07-31T17:14:36;100203.66;;;26.89;51.85
50105;BME280;47690;39.202;-77.198;2023-07-31T17:17:07;100200.91;;;26.91;51.21
50105;BME280;47690;39.202;-77.198;2023-07-31T17:19:37;100184.94;;;26.92;51.12
50105;BME280;47690;39.202;-77.198;2023-07-31T17:22:07;100179.50;;;26.94;50.66
50105;BME280;47690;39.202;-77.198;2023-07-31T17:24:37;100177.44;;;26.97;50.12
50105;BME280;47690;39.202;-77.198;2023-07-31T17:27:11;100185.94;;;27.01;48.62
50105;BME280;47690;39.202;-77.198;2023-07-31T17:29:40;100177.06;;;27.02;49.14
50105;BME280;47690;39.202;-77.198;2023-07-31T17:32:09;100178.84;;;27.02;49.39
50105;BME280;47690;39.202;-77.198;2023-07-31T17:34:38;100172.47;;;27.04;48.16
50105;BME280;47690;39.202;-77.198;2023-07-31T17:37:11;100163.28;;;27.08;48.35
50105;BME280;47690;39.202;-77.198;2023-07-31T17:39:40;100165.09;;;27.08;48.13
50105;BME280;47690;39.202;-77.198;2023-07-31T17:42:09;100160.38;;;27.11;48.10
50105;BME280;47690;39.202;-77.198;2023-07-31T17:44:37;100160.00;;;27.16;48.32
50105;BME280;47690;39.202;-77.198;2023-07-31T17:47:07;100153.59;;;27.19;48.07
50105;BME280;47690;39.202;-77.198;2023-07-31T17:49:40;100161.25;;;27.22;47.95
50105;BME280;47690;39.202;-77.198;2023-07-31T17:52:09;100163.06;;;27.21;47.79